Time;durP1;ratioP1;P1;durP2;ratioP2;P2;SDS_P1;SDS_P2;PMS_P1;PMS_P2;Temp;Humidity;BMP_temperature;BMP_pressure;BME280_temperature;BME280_humidity;BME280_pressure;Samples;Min_cycle;Max_cycle;Signal;HPM_P1;HPM_P2
2023/05/15 00:02:21;;;;;;;5.70;5.30;;;12.20;99.90;;;;;;6116128;23;20883;-75
2023/05/15 00:04:48;;;;;;;5.40;5.00;;;12.50;99.90;;;;;;6120305;23;20198;-75
2023/05/15 00:07:15;;;;;;;5.70;5.30;;;12.30;99.90;;;;;;6118334;23;20199;-75
2023/05/15 00:09:42;;;;;;;5.60;5.20;;;12.50;99.90;;;;;;6130326;23;20762;-75
2023/05/15 00:12:11;;;;;;;5.40;5.00;;;12.20;99.90;;;;;;6107170;23;20648;-75
2023/05/15 00:14:38;;;;;;;6.35;5.65;;;12.20;99.90;;;;;;6117261;23;20579;-74
2023/05/15 00:17:06;;;;;;;6.15;5.65;;;12.20;99.90;;;;;;6116545;23;20674;-75
2023/05/15 00:19:33;;;;;;;5.70;5.20;;;12.20;99.90;;;;;;6122901;23;20223;-75
2023/05/15 00:22:00;;;;;;;6.00;5.55;;;12.40;99.90;;;;;;6139967;23;20199;-75
2023/05/15 00:24:27;;;;;;;5.78;5.18;;;12.20;99.90;;;;;;6119202;23;20298;-74
2023/05/15 00:26:54;;;;;;;5.65;5.25;;;12.50;99.90;;;;;;6113697;23;20573;-75
2023/05/15 00:29:23;;;;;;;5.07;4.68;;;12.10;99.90;;;;;;6114523;23;20211;-75
2023/05/15 00:31:50;;;;;;;5.75;5.35;;;12.10;99.90;;;;;;6120667;23;20198;-75
2023/05/15 00:34:17;;;;;;;6.70;5.10;;;12.50;99.90;;;;;;6130391;23;20186;-75
2023/05/15 00:36:45;;;;;;;4.88;4.50;;;12.20;99.90;;;;;;6127915;23;20199;-75
2023/05/15 00:39:12;;;;;;;4.70;4.40;;;12.20;99.90;;;;;;6114871;23;20695;-75
2023/05/15 00:41:41;;;;;;;4.93;4.53;;;12.30;99.90;;;;;;6116158;23;20192;-75
2023/05/15 00:44:10;;;;;;;5.07;4.68;;;12.50;99.90;;;;;;6103733;23;20216;-75
2023/05/15 00:46:40;;;;;;;5.20;4.70;;;12.60;99.90;;;;;;6135860;23;20278;-75
2023/05/15 00:49:12;;;;;;;5.13;4.60;;;12.40;99.90;;;;;;6125158;23;20277;-74
2023/05/15 00:51:40;;;;;;;4.80;4.43;;;12.50;99.90;;;;;;6115767;23;20224;-74
2023/05/15 00:54:09;;;;;;;4.63;4.23;;;12.60;99.90;;;;;;6116784;23;20648;-75
2023/05/15 00:56:36;;;;;;;5.32;4.93;;;12.60;99.90;;;;;;6116239;23;20771;-74
2023/05/15 00:59:04;;;;;;;5.10;4.70;;;12.90;99.90;;;;;;6113359;23;20705;-74
2023/05/15 01:01:33;;;;;;;4.73;3.90;;;12.60;99.90;;;;;;6113455;23;20525;-74
2023/05/15 01:04:02;;;;;;;5.10;4.70;;;12.60;99.90;;;;;;6118616;23;20953;-75
2023/05/15 01:06:31;;;;;;;5.13;4.63;;;12.60;99.90;;;;;;6115213;23;20687;-74
2023/05/15 01:09:00;;;;;;;4.40;4.00;;;13.00;99.90;;;;;;6112725;23;20542;-75
2023/05/15 01:11:34;;;;;;;4.93;4.63;;;12.70;99.90;;;;;;6120262;23;20247;-75
2023/05/15 01:14:04;;;;;;;5.00;4.70;;;12.70;99.90;;;;;;6109369;23;20183;-75
2023/05/15 01:16:31;;;;;;;5.00;4.60;;;13.00;99.90;;;;;;6113162;23;20442;-75
2023/05/15 01:18:58;;;;;;;5.17;4.77;;;12.70;99.90;;;;;;6103048;23;20456;-75
2023/05/15 01:22:19;;;;;;;5.70;5.30;;;13.00;99.90;;;;;;6117581;23;20530;-75
2023/05/15 01:25:17;;;;;;;5.97;4.90;;;12.70;99.90;;;;;;6055737;23;20567;-75
2023/05/15 01:27:50;;;;;;;4.50;4.20;;;12.70;99.90;;;;;;6109280;23;20448;-74
2023/05/15 01:30:22;;;;;;;5.30;4.90;;;12.80;99.90;;;;;;6111219;23;20458;-74
2023/05/15 01:32:57;;;;;;;5.43;5.00;;;13.10;99.90;;;;;;6117897;23;20925;-75
2023/05/15 01:35:31;;;;;;;5.75;5.25;;;12.80;99.90;;;;;;6136254;23;20187;-75
2023/05/15 01:38:05;;;;;;;7.55;6.15;;;13.10;99.90;;;;;;6119492;23;20195;-75
2023/05/15 01:40:32;;;;;;;6.35;5.75;;;12.90;99.90;;;;;;6117466;23;20195;-75
2023/05/15 01:43:05;;;;;;;6.67;6.17;;;12.90;99.90;;;;;;6116133;23;20241;-74
2023/05/15 01:45:34;;;;;;;6.23;5.80;;;12.70;99.90;;;;;;6114929;23;20426;-75
2023/05/15 01:48:02;;;;;;;5.57;5.10;;;12.70;99.90;;;;;;6118691;23;21076;-75
2023/05/15 01:50:32;;;;;;;5.27;4.87;;;12.70;99.90;;;;;;6118797;23;20192;-75
2023/05/15 01:53:02;;;;;;;5.70;5.20;;;13.00;99.90;;;;;;6118772;23;20445;-75
2023/05/15 01:55:30;;;;;;;5.23;4.83;;;12.70;99.90;;;;;;6115901;23;20466;-75
2023/05/15 01:58:03;;;;;;;5.40;5.00;;;13.00;99.90;;;;;;6109947;23;20433;-75
2023/05/15 02:00:32;;;;;;;5.30;4.90;;;12.60;99.90;;;;;;6111130;23;20468;-75
2023/05/15 02:03:00;;;;;;;4.35;4.05;;;12.60;99.90;;;;;;6113275;23;20764;-75
2023/05/15 02:05:27;;;;;;;5.47;4.40;;;12.60;99.90;;;;;;6119278;23;20188;-75
2023/05/15 02:07:55;;;;;;;4.60;4.20;;;12.50;99.90;;;;;;6117493;23;20218;-75
2023/05/15 02:10:22;;;;;;;5.20;4.40;;;12.50;99.90;;;;;;6117068;23;20510;-75
2023/05/15 02:12:50;;;;;;;5.00;4.60;;;12.70;99.90;;;;;;6116532;23;20200;-75
2023/05/15 02:15:20;;;;;;;4.37;4.07;;;12.70;99.90;;;;;;6121316;23;20215;-75
2023/05/15 02:17:47;;;;;;;6.10;5.15;;;12.40;99.90;;;;;;6119195;23;20835;-74
2023/05/15 02:20:14;;;;;;;5.15;4.75;;;12.30;99.90;;;;;;6120277;23;20264;-75
2023/05/15 02:22:42;;;;;;;5.32;4.93;;;12.60;99.90;;;;;;6111609;23;20226;-75
2023/05/15 02:25:09;;;;;;;5.78;5.38;;;12.30;99.90;;;;;;6113479;23;20255;-75
2023/05/15 02:27:43;;;;;;;5.80;5.40;;;12.30;99.90;;;;;;6116640;23;20265;-75
2023/05/15 02:30:24;;;;;;;6.60;6.00;;;12.50;99.90;;;;;;6119808;23;20207;-75
2023/05/15 02:33:04;;;;;;;6.20;5.80;;;12.20;99.90;;;;;;6099413;23;20191;-75
2023/05/15 02:35:40;;;;;;;5.88;5.45;;;12.20;99.90;;;;;;6119506;23;20643;-75
2023/05/15 02:38:11;;;;;;;6.70;6.10;;;12.20;99.90;;;;;;6095075;23;20193;-75
2023/05/15 02:40:39;;;;;;;5.78;5.38;;;12.60;99.90;;;;;;6114396;23;20183;-75
2023/05/15 02:43:08;;;;;;;5.50;5.00;;;12.30;99.90;;;;;;6116142;23;20199;-75
2023/05/15 02:45:37;;;;;;;5.47;5.05;;;12.50;99.90;;;;;;6119285;23;20264;-75
2023/05/15 02:48:07;;;;;;;5.97;5.47;;;12.30;99.90;;;;;;6116076;23;20195;-75
2023/05/15 02:50:34;;;;;;;5.47;5.07;;;12.40;99.90;;;;;;6117716;23;20195;-75
2023/05/15 02:53:03;;;;;;;5.37;4.77;;;12.70;99.90;;;;;;6112804;23;20188;-75
2023/05/15 02:55:30;;;;;;;5.30;4.90;;;12.40;99.90;;;;;;6119539;23;20452;-75
2023/05/15 02:57:58;;;;;;;5.83;5.27;;;12.40;99.90;;;;;;6113945;23;20436;-75
2023/05/15 03:00:25;;;;;;;5.77;5.27;;;12.40;99.90;;;;;;6146894;23;20474;-75
2023/05/15 03:02:54;;;;;;;5.37;4.97;;;12.40;99.90;;;;;;6135664;23;20764;-75
2023/05/15 03:05:21;;;;;;;5.32;4.85;;;12.80;99.90;;;;;;6118483;23;20485;-75
2023/05/15 03:07:48;;;;;;;4.73;4.33;;;12.40;99.90;;;;;;6114860;23;20270;-75
2023/05/15 03:10:15;;;;;;;5.18;4.75;;;12.40;99.90;;;;;;6119773;23;20517;-75
2023/05/15 03:12:42;;;;;;;5.28;4.88;;;12.30;99.90;;;;;;6115969;23;20199;-75
2023/05/15 03:15:10;;;;;;;5.47;5.07;;;12.60;99.90;;;;;;6098458;23;20188;-75
2023/05/15 03:17:37;;;;;;;5.60;5.13;;;12.30;99.90;;;;;;6112217;23;21158;-75
2023/05/15 03:20:07;;;;;;;4.95;4.40;;;12.30;99.90;;;;;;6126172;23;20289;-75
2023/05/15 03:22:34;;;;;;;5.05;4.65;;;12.30;99.90;;;;;;6120392;23;20202;-75
2023/05/15 03:25:02;;;;;;;5.60;5.00;;;12.30;99.90;;;;;;6119028;23;20218;-75
2023/05/15 03:27:28;;;;;;;5.65;5.20;;;12.30;99.90;;;;;;6120027;23;20187;-75
2023/05/15 03:29:55;;;;;;;5.38;4.97;;;12.30;99.90;;;;;;6120641;23;20219;-75
2023/05/15 03:32:23;;;;;;;5.53;5.13;;;12.30;99.90;;;;;;6116545;23;20290;-75
2023/05/15 03:34:50;;;;;;;6.38;5.88;;;12.30;99.90;;;;;;6119822;23;20219;-75
2023/05/15 03:37:18;;;;;;;5.90;5.40;;;12.30;99.90;;;;;;6119163;23;20195;-75
2023/05/15 03:39:45;;;;;;;5.80;5.30;;;12.30;99.90;;;;;;6117601;23;20294;-75
2023/05/15 03:42:12;;;;;;;6.68;6.07;;;12.30;99.90;;;;;;6118809;23;20607;-75
2023/05/15 03:44:40;;;;;;;6.68;6.07;;;12.30;99.90;;;;;;6124755;23;20215;-75
2023/05/15 03:47:07;;;;;;;6.22;5.72;;;12.30;99.90;;;;;;6128815;23;20218;-75
2023/05/15 03:49:34;;;;;;;6.15;5.30;;;12.30;99.90;;;;;;6118034;23;20204;-75
2023/05/15 03:52:01;;;;;;;6.85;6.35;;;12.30;99.90;;;;;;6113008;23;20274;-75
2023/05/15 03:54:30;;;;;;;6.75;6.25;;;12.30;99.90;;;;;;6123875;23;20266;-75
2023/05/15 03:56:57;;;;;;;7.28;6.70;;;12.30;99.90;;;;;;6119266;23;20198;-75
2023/05/15 03:59:24;;;;;;;6.82;5.90;;;12.30;99.90;;;;;;6117421;23;20214;-75
2023/05/15 04:01:51;;;;;;;7.68;7.00;;;12.30;99.90;;;;;;6116061;23;20183;-75
2023/05/15 04:04:18;;;;;;;6.93;6.10;;;12.30;99.90;;;;;;6119762;23;20235;-75
2023/05/15 04:06:45;;;;;;;6.60;6.00;;;12.40;99.90;;;;;;6119611;23;20183;-75
2023/05/15 04:09:12;;;;;;;6.57;5.97;;;12.40;99.90;;;;;;6116879;23;20922;-75
2023/05/15 04:11:40;;;;;;;6.70;6.20;;;12.40;99.90;;;;;;6118302;23;20287;-75
2023/05/15 04:14:07;;;;;;;8.17;7.37;;;12.40;99.90;;;;;;6118417;23;20477;-75
2023/05/15 04:16:35;;;;;;;8.80;8.00;;;12.40;99.90;;;;;;6112242;23;20446;-75
2023/05/15 04:19:02;;;;;;;8.27;7.57;;;12.50;99.90;;;;;;6120914;23;20247;-76
2023/05/15 04:21:29;;;;;;;7.50;6.88;;;12.50;99.90;;;;;;6121834;23;20445;-75
2023/05/15 04:23:56;;;;;;;8.50;7.80;;;12.50;99.90;;;;;;6107478;23;20545;-75
2023/05/15 04:26:24;;;;;;;7.53;6.93;;;12.50;99.90;;;;;;6109194;23;20446;-77
2023/05/15 04:28:52;;;;;;;8.30;7.60;;;12.60;99.90;;;;;;6116088;23;20520;-77
2023/05/15 04:31:19;;;;;;;8.27;7.47;;;12.60;99.90;;;;;;6135141;23;20464;-76
2023/05/15 04:33:46;;;;;;;8.15;7.40;;;12.60;99.90;;;;;;6121917;23;20440;-77
2023/05/15 04:36:13;;;;;;;8.90;8.10;;;12.70;99.90;;;;;;6123692;23;20207;-77
2023/05/15 04:38:41;;;;;;;7.03;6.47;;;12.70;99.90;;;;;;6118645;23;21057;-78
2023/05/15 04:41:08;;;;;;;6.90;6.30;;;12.70;99.90;;;;;;6110190;23;20508;-77
2023/05/15 04:43:34;;;;;;;7.67;7.07;;;12.70;99.90;;;;;;6118949;23;21155;-77
2023/05/15 04:46:03;;;;;;;7.30;6.80;;;12.70;99.90;;;;;;6100075;23;21037;-78
2023/05/15 04:48:30;;;;;;;7.93;7.33;;;12.80;99.90;;;;;;6119594;23;20488;-77
2023/05/15 04:50:57;;;;;;;7.23;6.60;;;12.80;99.90;;;;;;6118838;23;20446;-78
2023/05/15 04:53:24;;;;;;;8.43;7.63;;;12.80;99.90;;;;;;6117629;23;20483;-81
2023/05/15 04:55:51;;;;;;;7.97;7.30;;;12.90;99.90;;;;;;6084381;23;20535;-76
2023/05/15 04:58:18;;;;;;;7.73;7.23;;;12.90;99.90;;;;;;6090932;23;20501;-76
2023/05/15 05:00:46;;;;;;;8.33;7.47;;;13.00;99.90;;;;;;6104954;23;20439;-76
2023/05/15 05:03:14;;;;;;;7.13;6.63;;;13.00;99.90;;;;;;6107888;23;20440;-75
2023/05/15 05:05:41;;;;;;;8.33;7.70;;;13.00;99.90;;;;;;6119992;23;20512;-75
2023/05/15 05:08:08;;;;;;;8.40;7.70;;;13.00;99.90;;;;;;6120628;23;20460;-75
2023/05/15 05:10:35;;;;;;;8.20;7.40;;;13.10;99.90;;;;;;6101469;23;20435;-76
2023/05/15 05:13:02;;;;;;;7.40;6.80;;;13.20;99.90;;;;;;6095782;23;20562;-77
2023/05/15 05:15:29;;;;;;;6.80;6.20;;;13.30;99.90;;;;;;6092497;23;20434;-72
2023/05/15 05:17:56;;;;;;;8.40;7.67;;;13.00;99.90;;;;;;6102994;23;20843;-72
2023/05/15 05:20:25;;;;;;;9.30;7.20;;;13.50;99.90;;;;;;6095820;23;20516;-76
2023/05/15 05:22:52;;;;;;;7.83;7.23;;;13.70;99.90;;;;;;6107229;23;20858;-76
2023/05/15 05:25:19;;;;;;;7.70;7.10;;;13.70;99.90;;;;;;6103777;23;20451;-76
2023/05/15 05:27:47;;;;;;;7.90;7.30;;;13.70;99.90;;;;;;6088907;23;20486;-76
2023/05/15 05:30:15;;;;;;;7.40;6.80;;;13.70;99.90;;;;;;6111443;23;20518;-76
2023/05/15 05:32:41;;;;;;;8.40;7.53;;;13.70;99.90;;;;;;6082497;23;20436;-76
2023/05/15 05:35:09;;;;;;;8.47;7.77;;;13.70;99.90;;;;;;6092317;23;20504;-76
2023/05/15 05:37:38;;;;;;;7.93;7.33;;;13.70;99.90;;;;;;6110759;23;20443;-76
2023/05/15 05:40:07;;;;;;;8.70;7.90;;;13.70;99.90;;;;;;6111619;23;20547;-79
2023/05/15 05:42:34;;;;;;;8.00;7.30;;;13.70;99.90;;;;;;6105335;23;20864;-76
2023/05/15 05:45:01;;;;;;;8.70;8.00;;;13.70;99.90;;;;;;6118220;23;21059;-75
2023/05/15 05:47:29;;;;;;;7.80;7.17;;;13.70;99.90;;;;;;6105194;23;20477;-75
2023/05/15 05:49:55;;;;;;;8.10;7.40;;;13.80;99.90;;;;;;6102760;23;20808;-75
2023/05/15 05:52:23;;;;;;;8.10;7.50;;;13.80;99.90;;;;;;6104313;23;21006;-75
2023/05/15 05:54:51;;;;;;;7.67;7.07;;;13.90;99.90;;;;;;6097330;23;20516;-76
2023/05/15 05:57:18;;;;;;;7.40;6.80;;;13.80;99.90;;;;;;6090569;23;20459;-76
2023/05/15 05:59:46;;;;;;;8.70;8.03;;;13.90;99.90;;;;;;6096110;23;20554;-76
2023/05/15 06:02:13;;;;;;;7.90;7.30;;;13.90;99.90;;;;;;6102738;23;20522;-75
2023/05/15 06:04:40;;;;;;;7.47;6.87;;;13.90;99.90;;;;;;6106590;23;20974;-75
2023/05/15 06:07:08;;;;;;;8.40;7.70;;;13.90;99.90;;;;;;6080901;23;20431;-75
2023/05/15 06:09:35;;;;;;;7.60;7.00;;;13.90;99.90;;;;;;6065498;23;20466;-75
2023/05/15 06:12:04;;;;;;;7.73;7.20;;;13.90;99.90;;;;;;6095424;23;20441;-73
2023/05/15 06:14:31;;;;;;;7.43;6.83;;;14.00;99.90;;;;;;6086379;23;20446;-76
2023/05/15 06:16:58;;;;;;;7.40;6.80;;;14.00;99.90;;;;;;6087257;23;20443;-76
2023/05/15 06:19:25;;;;;;;7.70;7.10;;;14.10;99.90;;;;;;6099207;23;20463;-75
2023/05/15 06:21:53;;;;;;;7.13;6.63;;;14.10;99.90;;;;;;6080128;23;21098;-76
2023/05/15 06:24:20;;;;;;;6.53;6.03;;;14.20;99.90;;;;;;6077708;23;20807;-76
2023/05/15 06:26:47;;;;;;;7.00;6.03;;;14.20;99.90;;;;;;6095727;23;20444;-76
2023/05/15 06:29:15;;;;;;;8.43;7.00;;;14.30;99.90;;;;;;6113834;23;20452;-75
2023/05/15 06:31:42;;;;;;;7.30;6.70;;;14.40;99.90;;;;;;6104219;23;20528;-76
2023/05/15 06:34:09;;;;;;;7.50;6.90;;;14.50;99.90;;;;;;6101228;23;20476;-76
2023/05/15 06:36:38;;;;;;;7.67;7.07;;;14.60;99.90;;;;;;6113719;23;20938;-78
2023/05/15 06:39:05;;;;;;;6.73;6.23;;;14.70;99.90;;;;;;6104649;23;20445;-76
2023/05/15 06:41:32;;;;;;;7.00;6.40;;;14.70;99.90;;;;;;6081153;23;20459;-77
2023/05/15 06:43:59;;;;;;;6.67;6.03;;;14.80;99.90;;;;;;6097812;23;20517;-76
2023/05/15 06:46:28;;;;;;;7.73;6.50;;;14.90;99.90;;;;;;6094320;23;20469;-75
2023/05/15 06:48:55;;;;;;;6.90;6.20;;;15.00;99.90;;;;;;6111482;23;20445;-76
2023/05/15 06:51:22;;;;;;;7.40;6.90;;;15.10;99.90;;;;;;6107726;23;20446;-76
2023/05/15 06:53:49;;;;;;;7.60;6.77;;;15.30;99.90;;;;;;6114213;23;20465;-77
2023/05/15 06:56:16;;;;;;;6.70;6.20;;;15.40;99.90;;;;;;6118884;23;20429;-77
2023/05/15 06:59:02;;;;;;;6.77;6.17;;;15.60;99.90;;;;;;5932732;22;20836;-76
2023/05/15 07:01:30;;;;;;;6.87;6.37;;;15.70;99.90;;;;;;5019952;28;20483;-76
2023/05/15 07:03:57;;;;;;;6.30;5.80;;;15.90;99.90;;;;;;5026334;28;20488;-77
2023/05/15 07:06:25;;;;;;;6.37;5.87;;;16.00;99.90;;;;;;5030501;28;20998;-76
2023/05/15 07:08:52;;;;;;;5.97;5.57;;;16.20;99.90;;;;;;5017354;28;20982;-77
2023/05/15 07:11:19;;;;;;;6.03;5.63;;;16.50;99.90;;;;;;5005711;28;20547;-76
2023/05/15 07:13:46;;;;;;;6.47;5.97;;;16.10;99.90;;;;;;5021415;28;20505;-77
2023/05/15 07:16:13;;;;;;;5.90;5.47;;;16.60;99.90;;;;;;5023377;28;20462;-77
2023/05/15 07:18:42;;;;;;;5.80;5.37;;;16.70;99.90;;;;;;5016793;28;20562;-76
2023/05/15 07:21:09;;;;;;;6.40;5.90;;;16.90;99.90;;;;;;5031471;28;20440;-76
2023/05/15 07:23:36;;;;;;;5.77;5.37;;;17.00;99.90;;;;;;5032658;28;20436;-76
2023/05/15 07:26:03;;;;;;;6.07;5.57;;;17.00;99.90;;;;;;5015267;28;21084;-77
2023/05/15 07:28:30;;;;;;;5.10;4.80;;;17.00;99.90;;;;;;5008015;28;21276;-76
2023/05/15 07:30:57;;;;;;;5.33;4.93;;;17.10;99.90;;;;;;4990686;28;20453;-76
2023/05/15 07:33:24;;;;;;;5.13;4.73;;;17.30;99.90;;;;;;5010758;28;20448;-76
2023/05/15 07:35:52;;;;;;;5.67;4.60;;;17.80;99.90;;;;;;5012671;28;20459;-77
2023/05/15 07:38:19;;;;;;;6.00;5.60;;;17.80;99.90;;;;;;5011241;28;20494;-76
2023/05/15 07:40:47;;;;;;;4.80;4.50;;;18.20;99.90;;;;;;4997736;28;20468;-77
2023/05/15 07:43:14;;;;;;;5.03;4.63;;;18.60;99.90;;;;;;5006280;28;20454;-76
2023/05/15 07:45:41;;;;;;;4.53;4.23;;;19.00;99.90;;;;;;5026913;28;20492;-76
2023/05/15 07:48:15;;;;;;;4.70;4.20;;;19.40;99.90;;;;;;5019450;28;20541;-76
2023/05/15 07:50:42;;;;;;;4.77;4.47;;;19.70;99.90;;;;;;5028515;28;20460;-76
2023/05/15 07:53:11;;;;;;;4.90;4.50;;;20.00;99.90;;;;;;5012019;28;20453;-76
2023/05/15 07:55:38;;;;;;;4.73;4.33;;;20.20;99.90;;;;;;5002193;28;20452;-75
2023/05/15 07:58:05;;;;;;;3.97;3.67;;;20.30;99.90;;;;;;5012929;28;20530;-75
2023/05/15 08:00:32;;;;;;;3.90;3.60;;;20.30;99.90;;;;;;5012452;28;20486;-77
2023/05/15 08:03:00;;;;;;;3.97;3.67;;;20.30;99.90;;;;;;5018973;28;20479;-77
2023/05/15 08:05:27;;;;;;;4.40;4.00;;;20.50;99.90;;;;;;5012321;28;20480;-77
2023/05/15 08:07:55;;;;;;;4.50;4.00;;;20.70;99.90;;;;;;5028446;28;20958;-77
2023/05/15 08:10:23;;;;;;;3.40;3.20;;;20.70;99.90;;;;;;5020620;28;20490;-77
2023/05/15 08:12:50;;;;;;;3.57;3.27;;;20.80;99.90;;;;;;5014007;28;20509;-77
2023/05/15 08:15:19;;;;;;;3.70;3.50;;;21.10;99.90;;;;;;5000102;28;20840;-77
2023/05/15 08:17:46;;;;;;;3.20;2.90;;;21.40;99.90;;;;;;5012371;28;20457;-77
2023/05/15 08:20:13;;;;;;;3.30;3.00;;;21.60;99.90;;;;;;5000290;28;20598;-78
2023/05/15 08:22:41;;;;;;;3.53;3.33;;;21.90;99.90;;;;;;5003452;28;20452;-77
2023/05/15 08:25:09;;;;;;;3.10;2.80;;;22.20;99.90;;;;;;5009195;28;20484;-76
2023/05/15 08:27:38;;;;;;;3.30;3.10;;;22.40;99.90;;;;;;5003960;28;20520;-78
2023/05/15 08:30:07;;;;;;;3.73;3.43;;;22.70;99.90;;;;;;5026837;28;20890;-76
2023/05/15 08:32:34;;;;;;;3.60;3.40;;;22.90;99.90;;;;;;5021843;28;20452;-84
2023/05/15 08:35:01;;;;;;;3.40;3.10;;;23.10;99.90;;;;;;5014713;28;20512;-84
2023/05/15 08:37:29;;;;;;;3.30;3.10;;;23.30;99.90;;;;;;5021483;28;20458;-84
2023/05/15 08:39:56;;;;;;;3.63;3.30;;;23.50;99.90;;;;;;5019970;28;20478;-84
2023/05/15 08:42:28;;;;;;;3.57;3.27;;;23.70;99.90;;;;;;5007968;28;20506;-84
2023/05/15 08:44:58;;;;;;;3.90;3.70;;;23.80;99.90;;;;;;5005922;28;20465;-83
2023/05/15 08:47:27;;;;;;;3.33;3.03;;;23.90;99.90;;;;;;5010869;28;20459;-77
2023/05/15 08:50:03;;;;;;;3.23;3.03;;;24.00;99.90;;;;;;5007213;28;20563;-76
2023/05/15 08:52:32;;;;;;;4.23;3.83;;;24.20;99.90;;;;;;5018405;28;20539;-76
2023/05/15 08:54:59;;;;;;;3.63;3.43;;;24.20;99.90;;;;;;5026224;28;20459;-76
2023/05/15 08:57:27;;;;;;;3.73;3.43;;;23.90;99.90;;;;;;5019481;28;20460;-76
2023/05/15 08:59:55;;;;;;;3.30;3.10;;;23.60;99.90;;;;;;5021805;28;20507;-76
2023/05/15 09:02:25;;;;;;;3.37;3.17;;;23.70;99.90;;;;;;5026684;28;20495;-76
2023/05/15 09:04:52;;;;;;;3.53;3.33;;;23.90;99.90;;;;;;5026754;28;20864;-76
2023/05/15 09:07:20;;;;;;;3.57;3.30;;;24.10;99.90;;;;;;5022625;28;20491;-77
2023/05/15 09:09:47;;;;;;;3.57;3.27;;;23.90;99.90;;;;;;5019656;28;20579;-76
2023/05/15 09:12:16;;;;;;;3.87;3.57;;;23.90;99.90;;;;;;4989460;28;20459;-76
2023/05/15 09:14:43;;;;;;;3.30;3.10;;;24.20;99.90;;;;;;5005064;28;20568;-76
2023/05/15 09:17:11;;;;;;;3.60;3.40;;;24.20;99.90;;;;;;4999096;28;20989;-77
2023/05/15 09:19:39;;;;;;;3.37;3.17;;;24.30;99.90;;;;;;4983055;28;20468;-76
2023/05/15 09:22:21;;;;;;;3.17;2.97;;;24.50;99.90;;;;;;5014798;28;20470;-77
2023/05/15 09:24:51;;;;;;;3.20;3.00;;;24.70;99.50;;;;;;5020908;28;20479;-77
2023/05/15 09:27:19;;;;;;;3.40;3.20;;;24.80;98.90;;;;;;5020328;28;20494;-76
2023/05/15 09:29:56;;;;;;;3.90;3.60;;;24.90;98.20;;;;;;6152439;23;21051;-76
2023/05/15 09:32:27;;;;;;;3.90;3.60;;;24.80;98.40;;;;;;6141321;23;20456;-76
2023/05/15 09:34:54;;;;;;;3.57;3.37;;;24.90;98.10;;;;;;6123457;23;20443;-76
2023/05/15 09:37:31;;;;;;;3.60;3.40;;;24.70;97.60;;;;;;6141105;23;20455;-75
2023/05/15 09:40:09;;;;;;;3.30;3.10;;;24.50;98.00;;;;;;6132638;23;20489;-76
2023/05/15 09:42:37;;;;;;;3.20;3.00;;;24.60;98.20;;;;;;6123604;23;20443;-76
2023/05/15 09:45:16;;;;;;;3.60;3.40;;;24.70;97.90;;;;;;6132188;23;20475;-76
2023/05/15 09:47:43;;;;;;;4.00;3.70;;;25.00;97.50;;;;;;6134825;23;20516;-76
2023/05/15 09:50:11;;;;;;;3.50;3.30;;;25.30;98.50;;;;;;6146809;23;20440;-76
2023/05/15 09:52:39;;;;;;;3.90;3.67;;;25.30;98.30;;;;;;6131961;23;20760;-77
2023/05/15 09:55:07;;;;;;;3.73;3.50;;;25.10;98.60;;;;;;6144568;23;20910;-77
2023/05/15 09:57:34;;;;;;;3.80;3.60;;;25.00;98.90;;;;;;6141506;23;22385;-77
2023/05/15 10:00:09;;;;;;;3.80;3.50;;;24.90;98.70;;;;;;6144448;23;20491;-78
2023/05/15 10:02:40;;;;;;;3.60;3.37;;;25.00;98.40;;;;;;6133630;23;20428;-78
2023/05/15 10:05:08;;;;;;;4.20;3.67;;;25.00;97.90;;;;;;6137555;23;20428;-77
2023/05/15 10:07:36;;;;;;;3.27;3.07;;;25.20;97.00;;;;;;6142177;23;20439;-77
2023/05/15 10:10:05;;;;;;;4.63;4.20;;;25.30;96.80;;;;;;6134392;23;20471;-77
2023/05/15 10:12:32;;;;;;;3.30;3.00;;;25.30;95.90;;;;;;6139810;23;20523;-76
2023/05/15 10:15:01;;;;;;;3.80;3.60;;;25.20;95.80;;;;;;6143268;23;21527;-76
2023/05/15 10:17:30;;;;;;;4.27;3.97;;;25.30;95.90;;;;;;6135092;23;20479;-76
2023/05/15 10:19:59;;;;;;;3.23;3.03;;;25.20;96.30;;;;;;6133077;23;21540;-75
2023/05/15 10:22:30;;;;;;;3.73;3.43;;;25.30;96.20;;;;;;6145640;23;20442;-74
2023/05/15 10:25:02;;;;;;;3.10;2.80;;;25.60;95.40;;;;;;6104669;23;20492;-84
2023/05/15 10:27:30;;;;;;;2.80;2.60;;;25.90;96.30;;;;;;6103947;23;20441;-84
2023/05/15 10:29:59;;;;;;;2.80;2.60;;;26.40;95.40;;;;;;6134723;23;20519;-85
2023/05/15 10:32:27;;;;;;;2.90;2.70;;;26.80;92.60;;;;;;6117203;23;20987;-73
2023/05/15 10:34:54;;;;;;;2.90;2.50;;;27.00;91.50;;;;;;6133356;23;20907;-74
2023/05/15 10:37:24;;;;;;;2.80;2.53;;;27.20;90.50;;;;;;6137236;23;20493;-74
2023/05/15 10:39:55;;;;;;;2.53;2.33;;;27.40;90.60;;;;;;6133759;23;20463;-74
2023/05/15 10:42:25;;;;;;;2.80;2.47;;;27.40;89.10;;;;;;6144894;23;20849;-74
2023/05/15 10:44:58;;;;;;;3.40;3.20;;;27.10;90.70;;;;;;6142436;23;20991;-77
2023/05/15 10:47:26;;;;;;;2.80;2.60;;;27.00;90.30;;;;;;6126597;23;20931;-77
2023/05/15 10:49:53;;;;;;;3.07;2.87;;;26.90;90.50;;;;;;6125865;23;20545;-77
2023/05/15 10:52:20;;;;;;;2.93;2.73;;;26.30;90.20;;;;;;6144989;23;20930;-77
2023/05/15 10:54:49;;;;;;;3.30;3.10;;;25.50;90.80;;;;;;6141038;23;20527;-76
2023/05/15 10:57:16;;;;;;;3.87;3.57;;;24.90;91.40;;;;;;6142339;23;20432;-77
2023/05/15 10:59:44;;;;;;;3.10;2.90;;;24.70;91.90;;;;;;6140972;23;20551;-77
2023/05/15 11:02:22;;;;;;;3.90;2.70;;;24.80;91.20;;;;;;6136227;23;20438;-77
2023/05/15 11:04:55;;;;;;;2.93;2.73;;;25.20;91.30;;;;;;6141932;23;21110;-77
2023/05/15 11:07:23;;;;;;;2.97;2.67;;;25.90;90.10;;;;;;6135872;23;21001;-77
2023/05/15 11:09:51;;;;;;;2.77;2.63;;;26.60;88.70;;;;;;6117832;23;20548;-77
2023/05/15 11:12:19;;;;;;;3.13;2.93;;;27.30;86.00;;;;;;6117136;23;20465;-77
2023/05/15 11:15:20;;;;;;;2.50;2.40;;;27.80;85.40;;;;;;6125532;23;20439;-77
2023/05/15 11:18:04;;;;;;;2.77;2.57;;;28.10;82.90;;;;;;6122328;23;20458;-76
2023/05/15 11:20:38;;;;;;;2.87;2.67;;;27.80;82.20;;;;;;6120306;23;20445;-76
2023/05/15 11:23:06;;;;;;;2.80;2.60;;;27.20;81.50;;;;;;6117846;23;20873;-76
2023/05/15 11:25:36;;;;;;;3.00;2.80;;;26.90;80.60;;;;;;6131637;23;20440;-76
2023/05/15 11:28:04;;;;;;;3.70;2.70;;;26.70;80.30;;;;;;6083260;23;20465;-76
2023/05/15 11:30:36;;;;;;;2.73;2.63;;;26.40;81.80;;;;;;6117275;23;20441;-76
2023/05/15 11:33:07;;;;;;;3.40;3.20;;;26.10;83.10;;;;;;6128897;23;20438;-77
2023/05/15 11:35:37;;;;;;;2.87;2.67;;;26.10;83.30;;;;;;6132746;23;20947;-77
2023/05/15 11:38:10;;;;;;;2.63;2.43;;;26.50;83.70;;;;;;6128641;23;20468;-77
2023/05/15 11:40:46;;;;;;;3.50;2.77;;;27.10;82.20;;;;;;6113650;23;20447;-76
2023/05/15 11:43:24;;;;;;;2.60;2.40;;;27.50;79.50;;;;;;6134146;23;20461;-77
2023/05/15 11:45:54;;;;;;;2.87;2.67;;;27.80;78.60;;;;;;6124691;23;20442;-78
2023/05/15 11:48:24;;;;;;;3.90;3.60;;;27.70;78.70;;;;;;6107113;23;20460;-76
2023/05/15 11:50:52;;;;;;;2.77;2.57;;;27.30;78.90;;;;;;6109999;23;20436;-75
2023/05/15 11:53:20;;;;;;;3.70;3.40;;;26.70;77.60;;;;;;6131379;23;20451;-76
2023/05/15 11:55:48;;;;;;;3.30;3.00;;;26.10;79.50;;;;;;6126923;23;20559;-76
2023/05/15 11:58:17;;;;;;;4.03;2.80;;;26.20;80.80;;;;;;6139296;23;20479;-75
2023/05/15 12:00:46;;;;;;;4.00;3.10;;;26.50;79.00;;;;;;6117933;23;21352;-75
2023/05/15 12:03:19;;;;;;;3.10;2.90;;;26.50;79.00;;;;;;6131544;23;20520;-76
2023/05/15 12:05:46;;;;;;;3.10;2.90;;;26.50;79.30;;;;;;6126750;23;20432;-75
2023/05/15 12:08:13;;;;;;;3.43;3.00;;;26.40;79.60;;;;;;6110284;23;20461;-76
2023/05/15 12:10:42;;;;;;;2.50;2.30;;;25.90;79.80;;;;;;6137315;23;20499;-77
2023/05/15 12:13:11;;;;;;;3.00;2.70;;;25.50;78.10;;;;;;6130749;23;20436;-77
2023/05/15 12:15:44;;;;;;;3.20;2.60;;;25.40;79.40;;;;;;6124086;23;20460;-77
2023/05/15 12:18:11;;;;;;;2.87;2.73;;;25.70;79.80;;;;;;6092544;23;20462;-77
2023/05/15 12:20:43;;;;;;;2.90;2.60;;;25.80;82.40;;;;;;6110823;23;20470;-77
2023/05/15 12:23:10;;;;;;;3.43;2.70;;;25.80;83.30;;;;;;6096111;23;20439;-77
2023/05/15 12:25:37;;;;;;;2.73;2.53;;;25.40;81.30;;;;;;6109053;23;20437;-80
2023/05/15 12:28:05;;;;;;;3.23;3.03;;;25.10;81.80;;;;;;6129712;23;20475;-78
2023/05/15 12:30:34;;;;;;;3.00;2.80;;;24.80;81.00;;;;;;6135682;23;20900;-78
2023/05/15 12:33:03;;;;;;;3.63;3.13;;;24.40;82.20;;;;;;6124301;23;20443;-78
2023/05/15 12:35:34;;;;;;;3.00;2.60;;;24.30;82.20;;;;;;6117747;23;20517;-77
2023/05/15 12:38:03;;;;;;;3.00;2.80;;;24.50;81.10;;;;;;6119776;23;20456;-78
2023/05/15 12:40:33;;;;;;;3.23;3.03;;;24.50;81.50;;;;;;6132410;23;20929;-77
2023/05/15 12:43:05;;;;;;;2.93;2.53;;;24.40;81.30;;;;;;6127596;23;20438;-77
2023/05/15 12:45:36;;;;;;;2.60;2.40;;;24.20;81.30;;;;;;6121005;23;20438;-77
2023/05/15 12:48:04;;;;;;;2.70;2.50;;;24.00;83.90;;;;;;6114125;23;20461;-77
2023/05/15 12:50:33;;;;;;;3.07;2.87;;;23.70;86.20;;;;;;6142898;23;20479;-77
2023/05/15 12:53:02;;;;;;;3.40;3.10;;;23.40;87.60;;;;;;6126413;23;20437;-78
2023/05/15 12:55:32;;;;;;;3.33;3.03;;;23.20;89.60;;;;;;6139236;23;20442;-77
2023/05/15 12:58:01;;;;;;;2.97;2.77;;;22.90;88.70;;;;;;6134600;23;20457;-77